Aktualne dane pomiarowe

Uwaga, wersja testowa! Automatyczne pobieranie danych za pomocą narzędzi lub skryptów to umożliwiających jest zabronione.

Dane meteo z obszaru Polski uzyskane na podstawie depesz SYNOP pobieranych co godzinę z NWS. Najedź myszką na symbol przedstawiony w tabeli, aby uzyskać informacje co do jego znaczenia. Prosimy pamiętać, że to testowa wersja strony, która jeszcze nie jest ukończona. Stworzono również jest krótki FAQ dotyczący korzystania z tej podstrony Anomalie temperatury w chwili obecnej odniesione są do okresu referencyjnego 1951-2016. Okres ten będzie później zmieniony na 1981-2010. Kliknij ikonę aby pobrać plik CSV. Kliknij ikonę aby wygenerować mapę synoptyczną dla danego terminu.

Wybierz Datę:    

        

Jelenia Góra (12500)

Dane terminowe dla wybranej stacji. Kliknij datę, aby otrzymać dane z tego terminu dla wszystkich stacji.

TemperaturaZachmurzenieWiatrCiśnienieOpadyPogoda
 Data t td wb tx tn tg rh  Nt Nl Cl Cm Ch ws wd g1 g2 wx mslp ppp ch 24h 12h t ww ww w1 w2  
2019-08-08 23:00:00 12.8 12.2 12.3--- 9618.0wx-wxwx1wx--11014.7 973.9 0.7---------
2019-08-08 22:00:00 13.8 12.7 13.0--- 9326.0wx-wx0---01014.7 974.0 1.2---------
2019-08-08 21:00:00 14.3 13.0 13.4--- 9226.0wx-wxwx1wx--11014.2 973.6 1.4---------
2019-08-08 20:00:00 15.5 13.2 13.9--- 8645.0wxwxwxwxwx0----1013.6 973.2 1.1---------
2019-08-08 19:00:00 17.3 13.2 14.6--- 7750.0wxwxwxwxwx1wx--11012.9 972.8 0.7---------
2019-08-08 18:00:00 19.8 12.8 15.3 24.7 16.9- 6445.0wxwxwxwxwx2wx--21012.0 972.2 0.3--12wx---
2019-08-08 17:00:00 21.2 12.9 16.0--- 5950.0wxwxwxwxwx1wx--11011.7 972.1 0.1---------
2019-08-08 16:00:00 22.3 12.5 16.2--- 5450.0wxwxwxwxwx2wx---1011.5 972.1 -0.1---------
2019-08-08 15:00:00 23.9 11.2 16.3--- 4545.0wxwxwxwx3wx--31011.1 971.9 -0.5---------
2019-08-08 14:00:00 23.6 11.0 16.1--- 4550.0wxwxwxwx4wx--41011.2 972.0 -0.5---------
2019-08-08 13:00:00 23.8 11.1 16.2--- 4545.0wxwxwxwx6wx--61011.4 972.2 -0.2---------
2019-08-08 12:00:00 23.8 11.8 16.5--- 4740.0wxwxwxwx5wx101151011.6 972.4 0.1- 0.06------
2019-08-08 11:00:00 24.2 12.5 17.0--- 4845.0wxwxwxwx6wx--61011.7 972.5 0.5---------
2019-08-08 10:00:00 23.7 12.7 16.9--- 5040.0wxwxwxwx7wx-1171011.6 972.4 0.3---------
2019-08-08 09:00:00 22.6 12.2 16.2--- 5235.0wxwxwxwx5wx101051011.7 972.3 0.4---------
2019-08-08 08:00:00 20.9 14.3 16.6--- 6640.0wxwxwxwx2wx--21011.6 972.0 0.4---------
2019-08-08 07:00:00 19.1 13.7 15.6--- 7140.0wxwxwxwx1wx--11012.0 972.1 0.7---------
2019-08-08 06:00:00 16.9 14.7 15.4 19.3 13.0 12 8725.0wxwxwx1wx--11012.1 971.9 1.0 2.7 0.912----- 5.1
2019-08-08 05:00:00 14.6 14.4 14.4--- 9920.0wx-2wx---1012.1 971.6 1.3---------
2019-08-08 04:00:00 13.4 13.1 13.1--- 9820.0wxwxwx1wx---1012.0 971.4 1.3---------
2019-08-08 03:00:00 14.3 13.8 13.9--- 9710.0wxwxwx0---01011.4 970.9 1.4---------
2019-08-08 02:00:00 15.3 14.8 14.9--- 9710.0wxwxwx1wx--11010.6 970.3 0.9---------
2019-08-08 01:00:00 15.8 15.2 15.3--- 9610.0wxwxwx0---01010.3 970.1 0.7---------
2019-08-08 00:00:00 15.9 15.3 15.4--- 9616.0wxwxwx1wx--11009.7 969.5 0.7- 0.96wx-w1--
2019-08-07 23:00:00 16.1 15.6 15.7--- 9724.0wxwxwx1wx--11009.6 969.4 1.1---wx---
2019-08-07 22:00:00 16.6 15.8 16.0--- 9535.0wxwxwx1wx--11009.5 969.4 1.1---wx-w1w2--
2019-08-07 21:00:00 17.1 15.6 16.0--- 9114.0wxwxwx3wx--31008.8 968.8 1.1---wx-w1--
2019-08-07 20:00:00 17.6 15.6 16.2--- 8850.0wxwxwx1wx---1008.2 968.3 0.7---wx-w1--
2019-08-07 19:00:00 17.6 16.3 16.7--- 9227.0wxwxwx1wx---1008.2 968.3 0.6---wx-w1w2--
2019-08-07 18:00:00 19.3 16.5 17.3 26.9 17.9- 8440.0wxwxwx4wx--41007.3 967.7 0.8- 2.012wx-w1w2--
2019-08-07 17:00:00 19.6 18.3 18.6--- 9235.0wxwxwxwxwx2wx--21007.2 967.6 0.7---wx-w1--
2019-08-07 16:00:00 19.7 16.9 17.7--- 8415.0wxwxwx3wx--31007.3 967.7 -0.3---wx-w1w2--
2019-08-07 15:00:00 24.8 15.1 18.6--- 5550.0wxwxwxwx1wx--11005.8 966.9 -1.2---wx---
2019-08-07 14:00:00 25.4 14.2 18.3--- 5040.0wxwxwxwxwx2wx---1005.7 966.9 -1.6---------
2019-08-07 13:00:00 26.9 15.0 19.3--- 4835.0wxwxwxwxwx4wx--41006.6 968.0 -0.8---------
2019-08-07 12:00:00 25.3 14.1 18.2--- 5045.0wxwxwxwxwx4wx--41007.0 968.1 -0.8- 0.06------
2019-08-07 11:00:00 25.3 15.0 18.7--- 5350.0wxwxwxwxwx2wx--21007.4 968.5 -0.5---------
2019-08-07 10:00:00 24.1 15.3 18.4--- 5840.0wxwxwxwxwx1wx--11007.8 968.8 -0.1---------
2019-08-07 09:00:00 23.3 16.1 18.5--- 6440.0wxwxwxwxwx1wx---1008.1 968.9 0.1---------
2019-08-07 08:00:00 22.2 16.2 18.2--- 6940.0wxwxwxwxwx1wx--11008.3 969.0 0.5---------
2019-08-07 07:00:00 19.8 17.2 18.0--- 8530.0wxwxwxwxwx1wx--11008.5 968.9 -0.1---------
2019-08-07 06:00:00 17.9 16.4 16.8 20.4 14.2 13 9130.0wxwxwxwx1wx--11008.7 968.8 -0.2--12wx-w1- 9.5
2019-08-07 05:00:00 15.7 15.1 15.2--- 9620.0wxwxwxwx1wx--11008.7 968.5 -1.0---wx-w1--
2019-08-07 04:00:00 14.9 14.4 14.5--- 9715.0wxwxwx1wx---1009.3 969.0 -1.0---wx---
2019-08-07 03:00:00 14.4 13.8 13.9--- 9620.0wxwxwxwxwx1wx--11009.4 969.0 -0.9---------
2019-08-07 02:00:00 14.7 14.2 14.3--- 9730.0wxwxwxwxwx1wx--11009.9 969.5 -0.7---------
2019-08-07 01:00:00 14.4 13.8 13.9--- 9615.0wx-wxwx0---01010.4 970.0 -0.2---------
2019-08-07 00:00:00 14.8 14.2 14.3--- 9620.0wx-wxwx1wx--11010.3 969.9 0.0- 0.06------
1.6 ms

 

Print Friendly, PDF & Email